sensor_id;sensor_type;location;lat;lon;timestamp;temperature;humidity
12893;DHT22;6514;48.606;9.222;2023-11-21T00:00:33;7.00;99.90
12893;DHT22;6514;48.606;9.222;2023-11-21T00:03:00;7.00;99.90
12893;DHT22;6514;48.606;9.222;2023-11-21T00:05:27;7.00;99.90
12893;DHT22;6514;48.606;9.222;2023-11-21T00:07:55;7.00;99.90
12893;DHT22;6514;48.606;9.222;2023-11-21T00:10:22;7.00;99.90
12893;DHT22;6514;48.606;9.222;2023-11-21T00:12:49;6.90;99.90
12893;DHT22;6514;48.606;9.222;2023-11-21T00:15:16;6.90;99.90
12893;DHT22;6514;48.606;9.222;2023-11-21T00:17:42;6.90;99.90
12893;DHT22;6514;48.606;9.222;2023-11-21T00:20:10;6.90;99.90
12893;DHT22;6514;48.606;9.222;2023-11-21T00:22:38;6.90;99.90
12893;DHT22;6514;48.606;9.222;2023-11-21T00:25:08;6.80;99.90
12893;DHT22;6514;48.606;9.222;2023-11-21T00:27:35;6.80;99.90
12893;DHT22;6514;48.606;9.222;2023-11-21T00:30:02;6.80;99.90
12893;DHT22;6514;48.606;9.222;2023-11-21T00:32:31;6.90;99.90
12893;DHT22;6514;48.606;9.222;2023-11-21T00:34:57;6.90;99.90
12893;DHT22;6514;48.606;9.222;2023-11-21T00:37:24;6.90;99.90
12893;DHT22;6514;48.606;9.222;2023-11-21T00:39:51;6.90;99.90
12893;DHT22;6514;48.606;9.222;2023-11-21T00:42:19;7.00;99.90
12893;DHT22;6514;48.606;9.222;2023-11-21T00:44:47;7.00;99.90
12893;DHT22;6514;48.606;9.222;2023-11-21T00:47:16;7.00;99.90
12893;DHT22;6514;48.606;9.222;2023-11-21T00:49:43;7.00;99.90
12893;DHT22;6514;48.606;9.222;2023-11-21T00:52:10;7.00;99.90
12893;DHT22;6514;48.606;9.222;2023-11-21T00:54:36;7.00;99.90
12893;DHT22;6514;48.606;9.222;2023-11-21T00:57:03;7.00;99.90
12893;DHT22;6514;48.606;9.222;2023-11-21T00:59:31;7.10;99.90
12893;DHT22;6514;48.606;9.222;2023-11-21T01:01:58;7.00;99.90
12893;DHT22;6514;48.606;9.222;2023-11-21T01:04:27;7.00;99.90
12893;DHT22;6514;48.606;9.222;2023-11-21T01:06:54;7.00;99.90
12893;DHT22;6514;48.606;9.222;2023-11-21T01:09:20;7.00;99.90
12893;DHT22;6514;48.606;9.222;2023-11-21T01:11:47;7.10;99.90
12893;DHT22;6514;48.606;9.222;2023-11-21T01:14:14;7.10;99.90
12893;DHT22;6514;48.606;9.222;2023-11-21T01:16:44;7.10;99.90
12893;DHT22;6514;48.606;9.222;2023-11-21T01:19:11;7.10;99.90
12893;DHT22;6514;48.606;9.222;2023-11-21T01:21:38;7.10;99.90
12893;DHT22;6514;48.606;9.222;2023-11-21T01:24:05;7.10;99.90
12893;DHT22;6514;48.606;9.222;2023-11-21T01:26:35;7.10;99.90
12893;DHT22;6514;48.606;9.222;2023-11-21T01:29:02;7.10;99.90
12893;DHT22;6514;48.606;9.222;2023-11-21T01:31:29;7.10;99.90
12893;DHT22;6514;48.606;9.222;2023-11-21T01:33:57;7.10;99.90
12893;DHT22;6514;48.606;9.222;2023-11-21T01:36:30;7.10;99.90
12893;DHT22;6514;48.606;9.222;2023-11-21T01:38:57;7.10;99.90
12893;DHT22;6514;48.606;9.222;2023-11-21T01:41:25;7.20;99.90
12893;DHT22;6514;48.606;9.222;2023-11-21T01:43:52;7.10;99.90
12893;DHT22;6514;48.606;9.222;2023-11-21T01:46:19;7.10;99.90
12893;DHT22;6514;48.606;9.222;2023-11-21T01:48:47;7.10;99.90
12893;DHT22;6514;48.606;9.222;2023-11-21T01:51:16;7.00;99.90
12893;DHT22;6514;48.606;9.222;2023-11-21T01:53:44;7.00;99.90
12893;DHT22;6514;48.606;9.222;2023-11-21T01:56:12;7.00;99.90
12893;DHT22;6514;48.606;9.222;2023-11-21T01:58:40;7.00;99.90
12893;DHT22;6514;48.606;9.222;2023-11-21T02:01:07;7.00;99.90
12893;DHT22;6514;48.606;9.222;2023-11-21T02:03:35;7.00;99.90
12893;DHT22;6514;48.606;9.222;2023-11-21T02:06:02;7.00;99.90
12893;DHT22;6514;48.606;9.222;2023-11-21T02:08:33;7.00;99.90
12893;DHT22;6514;48.606;9.222;2023-11-21T02:11:00;7.00;99.90
12893;DHT22;6514;48.606;9.222;2023-11-21T02:13:28;7.00;99.90
12893;DHT22;6514;48.606;9.222;2023-11-21T02:15:54;7.00;99.90
12893;DHT22;6514;48.606;9.222;2023-11-21T02:18:21;7.00;99.90
12893;DHT22;6514;48.606;9.222;2023-11-21T02:20:48;7.00;99.90
12893;DHT22;6514;48.606;9.222;2023-11-21T02:23:16;6.90;99.90
12893;DHT22;6514;48.606;9.222;2023-11-21T02:25:43;6.90;99.90
12893;DHT22;6514;48.606;9.222;2023-11-21T02:28:10;6.90;99.90
12893;DHT22;6514;48.606;9.222;2023-11-21T02:30:38;6.90;99.90
12893;DHT22;6514;48.606;9.222;2023-11-21T02:33:05;6.80;99.90
12893;DHT22;6514;48.606;9.222;2023-11-21T02:35:32;6.70;99.90
12893;DHT22;6514;48.606;9.222;2023-11-21T02:38:00;6.70;99.90
12893;DHT22;6514;48.606;9.222;2023-11-21T02:40:28;6.60;99.90
12893;DHT22;6514;48.606;9.222;2023-11-21T02:42:55;6.50;99.90
12893;DHT22;6514;48.606;9.222;2023-11-21T02:45:24;6.40;99.90
12893;DHT22;6514;48.606;9.222;2023-11-21T02:47:51;6.30;99.90
12893;DHT22;6514;48.606;9.222;2023-11-21T02:50:22;6.30;99.90
12893;DHT22;6514;48.606;9.222;2023-11-21T02:55:55;6.10;99.90
12893;DHT22;6514;48.606;9.222;2023-11-21T02:58:23;6.10;99.90
12893;DHT22;6514;48.606;9.222;2023-11-21T03:00:49;6.10;99.90
12893;DHT22;6514;48.606;9.222;2023-11-21T03:03:17;6.10;99.90
12893;DHT22;6514;48.606;9.222;2023-11-21T03:05:44;6.10;99.90
12893;DHT22;6514;48.606;9.222;2023-11-21T03:08:10;6.10;99.90
12893;DHT22;6514;48.606;9.222;2023-11-21T03:10:37;6.10;99.90
12893;DHT22;6514;48.606;9.222;2023-11-21T03:13:05;6.20;99.90
12893;DHT22;6514;48.606;9.222;2023-11-21T03:15:32;6.20;99.90
12893;DHT22;6514;48.606;9.222;2023-11-21T03:18:01;6.20;99.90
12893;DHT22;6514;48.606;9.222;2023-11-21T03:20:28;6.20;99.90
12893;DHT22;6514;48.606;9.222;2023-11-21T03:22:55;6.30;99.90
12893;DHT22;6514;48.606;9.222;2023-11-21T03:25:22;6.30;99.90
12893;DHT22;6514;48.606;9.222;2023-11-21T03:27:49;6.30;99.90
12893;DHT22;6514;48.606;9.222;2023-11-21T03:30:17;6.30;99.90
12893;DHT22;6514;48.606;9.222;2023-11-21T03:32:44;6.30;99.90
12893;DHT22;6514;48.606;9.222;2023-11-21T03:35:11;6.30;99.90
12893;DHT22;6514;48.606;9.222;2023-11-21T03:37:38;6.30;99.90
12893;DHT22;6514;48.606;9.222;2023-11-21T03:40:07;6.30;99.90
12893;DHT22;6514;48.606;9.222;2023-11-21T03:42:34;6.30;99.90
12893;DHT22;6514;48.606;9.222;2023-11-21T03:45:01;6.40;99.90
12893;DHT22;6514;48.606;9.222;2023-11-21T03:47:31;6.40;99.90
12893;DHT22;6514;48.606;9.222;2023-11-21T03:49:57;6.40;99.90
12893;DHT22;6514;48.606;9.222;2023-11-21T03:52:25;6.40;99.90
12893;DHT22;6514;48.606;9.222;2023-11-21T03:54:52;6.40;99.90
12893;DHT22;6514;48.606;9.222;2023-11-21T03:57:19;6.40;99.90
12893;DHT22;6514;48.606;9.222;2023-11-21T03:59:48;6.50;99.90
12893;DHT22;6514;48.606;9.222;2023-11-21T04:02:15;6.50;99.90
12893;DHT22;6514;48.606;9.222;2023-11-21T04:04:44;6.60;99.90
12893;DHT22;6514;48.606;9.222;2023-11-21T04:07:11;6.60;99.90
12893;DHT22;6514;48.606;9.222;2023-11-21T04:09:39;6.60;99.90
12893;DHT22;6514;48.606;9.222;2023-11-21T04:12:07;6.60;99.90
12893;DHT22;6514;48.606;9.222;2023-11-21T04:14:34;6.60;99.90
12893;DHT22;6514;48.606;9.222;2023-11-21T04:17:01;6.60;99.90
12893;DHT22;6514;48.606;9.222;2023-11-21T04:19:29;6.70;99.90
12893;DHT22;6514;48.606;9.222;2023-11-21T04:21:57;6.70;99.90
12893;DHT22;6514;48.606;9.222;2023-11-21T04:24:24;6.70;99.90
12893;DHT22;6514;48.606;9.222;2023-11-21T04:26:51;6.70;99.90
12893;DHT22;6514;48.606;9.222;2023-11-21T04:29:19;6.70;99.90
12893;DHT22;6514;48.606;9.222;2023-11-21T04:31:46;6.80;99.90
12893;DHT22;6514;48.606;9.222;2023-11-21T04:34:14;6.80;99.90
12893;DHT22;6514;48.606;9.222;2023-11-21T04:36:44;6.80;99.90
12893;DHT22;6514;48.606;9.222;2023-11-21T04:39:12;6.80;99.90
12893;DHT22;6514;48.606;9.222;2023-11-21T04:41:39;6.80;99.90
12893;DHT22;6514;48.606;9.222;2023-11-21T04:44:06;6.90;99.90
12893;DHT22;6514;48.606;9.222;2023-11-21T04:46:32;6.90;99.90
12893;DHT22;6514;48.606;9.222;2023-11-21T04:48:59;6.90;99.90
12893;DHT22;6514;48.606;9.222;2023-11-21T04:51:26;6.90;99.90
12893;DHT22;6514;48.606;9.222;2023-11-21T04:53:53;7.00;99.90
12893;DHT22;6514;48.606;9.222;2023-11-21T04:56:21;7.00;99.90
12893;DHT22;6514;48.606;9.222;2023-11-21T04:58:50;7.00;99.90
12893;DHT22;6514;48.606;9.222;2023-11-21T05:01:17;7.00;99.90
12893;DHT22;6514;48.606;9.222;2023-11-21T05:03:43;7.00;99.90
12893;DHT22;6514;48.606;9.222;2023-11-21T05:06:12;7.00;99.90
12893;DHT22;6514;48.606;9.222;2023-11-21T05:08:38;7.00;99.90
12893;DHT22;6514;48.606;9.222;2023-11-21T05:11:05;7.00;99.90
12893;DHT22;6514;48.606;9.222;2023-11-21T05:13:35;7.00;99.90
12893;DHT22;6514;48.606;9.222;2023-11-21T05:16:02;7.00;99.90
12893;DHT22;6514;48.606;9.222;2023-11-21T05:18:31;7.10;99.90
12893;DHT22;6514;48.606;9.222;2023-11-21T05:20:58;7.10;99.90
12893;DHT22;6514;48.606;9.222;2023-11-21T05:23:24;7.00;99.90
12893;DHT22;6514;48.606;9.222;2023-11-21T05:25:51;7.00;99.90
12893;DHT22;6514;48.606;9.222;2023-11-21T05:28:18;7.00;99.90
12893;DHT22;6514;48.606;9.222;2023-11-21T05:30:46;7.00;99.90
12893;DHT22;6514;48.606;9.222;2023-11-21T05:33:15;7.00;99.90
12893;DHT22;6514;48.606;9.222;2023-11-21T05:35:42;7.00;99.90
12893;DHT22;6514;48.606;9.222;2023-11-21T05:38:09;7.00;99.90
12893;DHT22;6514;48.606;9.222;2023-11-21T05:40:36;7.00;99.90
12893;DHT22;6514;48.606;9.222;2023-11-21T05:43:03;7.00;99.90
12893;DHT22;6514;48.606;9.222;2023-11-21T05:45:30;7.00;99.90
12893;DHT22;6514;48.606;9.222;2023-11-21T05:47:59;7.00;99.90
12893;DHT22;6514;48.606;9.222;2023-11-21T05:50:26;7.00;99.90
12893;DHT22;6514;48.606;9.222;2023-11-21T05:52:53;7.10;99.90
12893;DHT22;6514;48.606;9.222;2023-11-21T05:55:22;7.00;99.90
12893;DHT22;6514;48.606;9.222;2023-11-21T05:57:51;7.00;99.90
12893;DHT22;6514;48.606;9.222;2023-11-21T06:00:17;7.00;99.90
12893;DHT22;6514;48.606;9.222;2023-11-21T06:02:47;7.00;99.90
12893;DHT22;6514;48.606;9.222;2023-11-21T06:05:18;7.00;99.90
12893;DHT22;6514;48.606;9.222;2023-11-21T06:07:45;7.00;99.90
12893;DHT22;6514;48.606;9.222;2023-11-21T06:10:12;7.00;99.90
12893;DHT22;6514;48.606;9.222;2023-11-21T06:12:40;7.00;99.90
12893;DHT22;6514;48.606;9.222;2023-11-21T06:15:09;7.00;99.90
12893;DHT22;6514;48.606;9.222;2023-11-21T06:17:39;6.90;99.90
12893;DHT22;6514;48.606;9.222;2023-11-21T06:20:08;7.00;99.90
12893;DHT22;6514;48.606;9.222;2023-11-21T06:22:37;6.90;99.90
12893;DHT22;6514;48.606;9.222;2023-11-21T06:25:05;6.90;99.90
12893;DHT22;6514;48.606;9.222;2023-11-21T06:27:32;6.90;99.90
12893;DHT22;6514;48.606;9.222;2023-11-21T06:29:59;6.90;99.90
12893;DHT22;6514;48.606;9.222;2023-11-21T06:32:28;6.80;99.90
12893;DHT22;6514;48.606;9.222;2023-11-21T06:34:56;6.90;99.90
12893;DHT22;6514;48.606;9.222;2023-11-21T06:37:25;6.90;99.90
12893;DHT22;6514;48.606;9.222;2023-11-21T06:39:53;6.90;99.90
12893;DHT22;6514;48.606;9.222;2023-11-21T06:42:20;6.90;99.90
12893;DHT22;6514;48.606;9.222;2023-11-21T06:44:47;6.90;99.90
12893;DHT22;6514;48.606;9.222;2023-11-21T06:47:17;6.90;99.90
12893;DHT22;6514;48.606;9.222;2023-11-21T06:49:46;6.90;99.90
12893;DHT22;6514;48.606;9.222;2023-11-21T06:52:14;6.90;99.90
12893;DHT22;6514;48.606;9.222;2023-11-21T06:54:41;6.90;99.90
12893;DHT22;6514;48.606;9.222;2023-11-21T06:57:09;6.90;99.90
12893;DHT22;6514;48.606;9.222;2023-11-21T06:59:36;6.90;99.90
12893;DHT22;6514;48.606;9.222;2023-11-21T07:02:03;6.90;99.90
12893;DHT22;6514;48.606;9.222;2023-11-21T07:04:34;7.00;99.90
12893;DHT22;6514;48.606;9.222;2023-11-21T07:07:01;7.00;99.90
12893;DHT22;6514;48.606;9.222;2023-11-21T07:09:29;7.00;99.90
12893;DHT22;6514;48.606;9.222;2023-11-21T07:11:57;7.00;99.90
12893;DHT22;6514;48.606;9.222;2023-11-21T07:14:26;7.00;99.90
12893;DHT22;6514;48.606;9.222;2023-11-21T07:16:54;7.00;99.90
12893;DHT22;6514;48.606;9.222;2023-11-21T07:19:23;7.10;99.90
12893;DHT22;6514;48.606;9.222;2023-11-21T07:21:50;7.10;99.90
12893;DHT22;6514;48.606;9.222;2023-11-21T07:24:17;7.20;99.90
12893;DHT22;6514;48.606;9.222;2023-11-21T07:26:44;7.30;99.90
12893;DHT22;6514;48.606;9.222;2023-11-21T07:29:13;7.30;99.90
12893;DHT22;6514;48.606;9.222;2023-11-21T07:31:44;7.40;99.90
12893;DHT22;6514;48.606;9.222;2023-11-21T07:34:11;7.50;99.90
12893;DHT22;6514;48.606;9.222;2023-11-21T07:36:38;7.60;99.90
12893;DHT22;6514;48.606;9.222;2023-11-21T07:39:05;7.60;99.90
12893;DHT22;6514;48.606;9.222;2023-11-21T07:41:32;7.70;99.90
12893;DHT22;6514;48.606;9.222;2023-11-21T07:43:59;7.80;99.90
12893;DHT22;6514;48.606;9.222;2023-11-21T07:46:26;7.80;99.90
12893;DHT22;6514;48.606;9.222;2023-11-21T07:48:55;7.90;99.90
12893;DHT22;6514;48.606;9.222;2023-11-21T07:51:21;7.90;99.90
12893;DHT22;6514;48.606;9.222;2023-11-21T07:53:48;7.90;99.90
12893;DHT22;6514;48.606;9.222;2023-11-21T07:56:15;7.90;99.90
12893;DHT22;6514;48.606;9.222;2023-11-21T07:58:43;7.90;99.90
12893;DHT22;6514;48.606;9.222;2023-11-21T08:01:11;7.90;99.90
12893;DHT22;6514;48.606;9.222;2023-11-21T08:03:38;8.00;99.90
12893;DHT22;6514;48.606;9.222;2023-11-21T08:06:07;8.00;99.90
12893;DHT22;6514;48.606;9.222;2023-11-21T08:08:34;8.10;99.90
12893;DHT22;6514;48.606;9.222;2023-11-21T08:11:00;8.10;99.90
12893;DHT22;6514;48.606;9.222;2023-11-21T08:13:29;8.10;99.90
12893;DHT22;6514;48.606;9.222;2023-11-21T08:15:57;8.20;99.90
12893;DHT22;6514;48.606;9.222;2023-11-21T08:18:28;8.20;99.90
12893;DHT22;6514;48.606;9.222;2023-11-21T08:20:55;8.20;99.90
12893;DHT22;6514;48.606;9.222;2023-11-21T08:23:23;8.30;99.90
12893;DHT22;6514;48.606;9.222;2023-11-21T08:25:51;8.30;99.90
12893;DHT22;6514;48.606;9.222;2023-11-21T08:28:19;8.30;99.90
12893;DHT22;6514;48.606;9.222;2023-11-21T08:30:48;8.40;99.90
12893;DHT22;6514;48.606;9.222;2023-11-21T08:33:15;8.40;99.90
12893;DHT22;6514;48.606;9.222;2023-11-21T08:35:41;8.40;99.90
12893;DHT22;6514;48.606;9.222;2023-11-21T08:38:08;8.40;99.90
12893;DHT22;6514;48.606;9.222;2023-11-21T08:40:37;8.50;99.90
12893;DHT22;6514;48.606;9.222;2023-11-21T08:43:05;8.50;99.90
12893;DHT22;6514;48.606;9.222;2023-11-21T08:45:33;8.60;99.90
12893;DHT22;6514;48.606;9.222;2023-11-21T08:48:00;8.60;99.90
12893;DHT22;6514;48.606;9.222;2023-11-21T08:50:26;8.60;99.90
12893;DHT22;6514;48.606;9.222;2023-11-21T08:52:53;8.60;99.90
12893;DHT22;6514;48.606;9.222;2023-11-21T08:55:21;8.70;99.90
12893;DHT22;6514;48.606;9.222;2023-11-21T08:57:49;8.70;99.90
12893;DHT22;6514;48.606;9.222;2023-11-21T09:00:17;8.70;99.90
12893;DHT22;6514;48.606;9.222;2023-11-21T09:02:44;8.80;99.90
12893;DHT22;6514;48.606;9.222;2023-11-21T09:05:14;8.80;99.90
12893;DHT22;6514;48.606;9.222;2023-11-21T09:07:42;8.80;99.90
12893;DHT22;6514;48.606;9.222;2023-11-21T09:10:13;8.80;99.90
12893;DHT22;6514;48.606;9.222;2023-11-21T09:12:40;8.80;99.90
12893;DHT22;6514;48.606;9.222;2023-11-21T09:15:10;8.80;99.90
12893;DHT22;6514;48.606;9.222;2023-11-21T09:17:37;8.90;99.90
12893;DHT22;6514;48.606;9.222;2023-11-21T09:20:05;9.00;99.90
12893;DHT22;6514;48.606;9.222;2023-11-21T09:22:35;9.00;99.90
12893;DHT22;6514;48.606;9.222;2023-11-21T09:25:02;9.10;99.90
12893;DHT22;6514;48.606;9.222;2023-11-21T09:27:30;9.10;99.90
12893;DHT22;6514;48.606;9.222;2023-11-21T09:29:57;9.20;99.90
12893;DHT22;6514;48.606;9.222;2023-11-21T09:32:25;9.20;99.90
12893;DHT22;6514;48.606;9.222;2023-11-21T09:34:52;9.30;99.90
12893;DHT22;6514;48.606;9.222;2023-11-21T09:37:21;9.50;99.90
12893;DHT22;6514;48.606;9.222;2023-11-21T09:39:47;9.90;99.90
12893;DHT22;6514;48.606;9.222;2023-11-21T09:42:18;10.40;99.90
12893;DHT22;6514;48.606;9.222;2023-11-21T09:44:54;10.80;99.90
12893;DHT22;6514;48.606;9.222;2023-11-21T09:47:25;11.00;99.90
12893;DHT22;6514;48.606;9.222;2023-11-21T09:49:54;11.00;99.90
12893;DHT22;6514;48.606;9.222;2023-11-21T09:52:25;10.80;99.90
12893;DHT22;6514;48.606;9.222;2023-11-21T09:54:53;10.90;99.90
12893;DHT22;6514;48.606;9.222;2023-11-21T09:57:20;10.80;99.90
12893;DHT22;6514;48.606;9.222;2023-11-21T09:59:51;10.80;99.90
12893;DHT22;6514;48.606;9.222;2023-11-21T10:02:22;10.80;99.90
12893;DHT22;6514;48.606;9.222;2023-11-21T10:04:53;10.70;99.90
12893;DHT22;6514;48.606;9.222;2023-11-21T10:07:20;10.70;99.90
12893;DHT22;6514;48.606;9.222;2023-11-21T10:09:47;10.60;99.90
12893;DHT22;6514;48.606;9.222;2023-11-21T10:12:15;10.50;99.90
12893;DHT22;6514;48.606;9.222;2023-11-21T10:14:48;10.60;99.90
12893;DHT22;6514;48.606;9.222;2023-11-21T10:17:15;10.60;99.90
12893;DHT22;6514;48.606;9.222;2023-11-21T10:19:46;10.60;99.90
12893;DHT22;6514;48.606;9.222;2023-11-21T10:22:15;10.60;99.90
12893;DHT22;6514;48.606;9.222;2023-11-21T10:24:43;10.60;99.90
12893;DHT22;6514;48.606;9.222;2023-11-21T10:27:10;10.70;99.90
12893;DHT22;6514;48.606;9.222;2023-11-21T10:29:36;10.70;99.90
12893;DHT22;6514;48.606;9.222;2023-11-21T10:32:04;10.70;99.90
12893;DHT22;6514;48.606;9.222;2023-11-21T10:34:31;10.60;99.90
12893;DHT22;6514;48.606;9.222;2023-11-21T10:37:00;10.60;99.90
12893;DHT22;6514;48.606;9.222;2023-11-21T10:39:39;10.60;99.90
12893;DHT22;6514;48.606;9.222;2023-11-21T10:42:08;10.60;99.90
12893;DHT22;6514;48.606;9.222;2023-11-21T10:44:35;10.70;99.90
12893;DHT22;6514;48.606;9.222;2023-11-21T10:47:02;10.80;99.90
12893;DHT22;6514;48.606;9.222;2023-11-21T10:49:29;10.90;99.90
12893;DHT22;6514;48.606;9.222;2023-11-21T10:51:56;10.90;99.90
12893;DHT22;6514;48.606;9.222;2023-11-21T10:54:24;10.80;99.90
12893;DHT22;6514;48.606;9.222;2023-11-21T10:56:56;10.80;99.90
12893;DHT22;6514;48.606;9.222;2023-11-21T10:59:26;10.70;99.90
12893;DHT22;6514;48.606;9.222;2023-11-21T11:01:57;10.70;99.90
12893;DHT22;6514;48.606;9.222;2023-11-21T11:04:27;10.60;99.90
12893;DHT22;6514;48.606;9.222;2023-11-21T11:06:55;10.60;99.90
12893;DHT22;6514;48.606;9.222;2023-11-21T11:09:23;10.60;99.90
12893;DHT22;6514;48.606;9.222;2023-11-21T11:11:51;10.60;99.90
12893;DHT22;6514;48.606;9.222;2023-11-21T11:14:21;10.50;99.90
12893;DHT22;6514;48.606;9.222;2023-11-21T11:16:52;10.50;99.90
12893;DHT22;6514;48.606;9.222;2023-11-21T11:19:19;10.40;99.90
12893;DHT22;6514;48.606;9.222;2023-11-21T11:21:53;10.40;99.90
12893;DHT22;6514;48.606;9.222;2023-11-21T11:24:41;10.40;99.90
12893;DHT22;6514;48.606;9.222;2023-11-21T11:27:18;10.40;99.90
12893;DHT22;6514;48.606;9.222;2023-11-21T11:29:56;10.30;99.90
12893;DHT22;6514;48.606;9.222;2023-11-21T11:32:36;10.30;99.90
12893;DHT22;6514;48.606;9.222;2023-11-21T11:35:12;10.10;99.90
12893;DHT22;6514;48.606;9.222;2023-11-21T11:37:42;10.00;99.90
12893;DHT22;6514;48.606;9.222;2023-11-21T11:40:11;9.90;99.90
12893;DHT22;6514;48.606;9.222;2023-11-21T11:42:38;9.80;99.90
12893;DHT22;6514;48.606;9.222;2023-11-21T11:45:19;9.80;99.90
12893;DHT22;6514;48.606;9.222;2023-11-21T11:47:48;9.60;99.90
12893;DHT22;6514;48.606;9.222;2023-11-21T11:50:14;9.60;99.90
12893;DHT22;6514;48.606;9.222;2023-11-21T11:52:44;9.50;99.90
12893;DHT22;6514;48.606;9.222;2023-11-21T11:55:12;9.40;99.90
12893;DHT22;6514;48.606;9.222;2023-11-21T11:57:40;9.40;99.90
12893;DHT22;6514;48.606;9.222;2023-11-21T12:00:09;9.40;99.90
12893;DHT22;6514;48.606;9.222;2023-11-21T12:02:37;9.40;99.90
12893;DHT22;6514;48.606;9.222;2023-11-21T12:05:09;9.60;99.90
12893;DHT22;6514;48.606;9.222;2023-11-21T12:07:43;9.70;99.90
12893;DHT22;6514;48.606;9.222;2023-11-21T12:10:12;9.80;99.90
12893;DHT22;6514;48.606;9.222;2023-11-21T12:12:43;9.80;99.90
12893;DHT22;6514;48.606;9.222;2023-11-21T12:15:12;9.70;99.90
12893;DHT22;6514;48.606;9.222;2023-11-21T12:17:41;9.60;99.90
12893;DHT22;6514;48.606;9.222;2023-11-21T12:20:10;9.60;99.90
12893;DHT22;6514;48.606;9.222;2023-11-21T12:22:44;9.50;99.90
12893;DHT22;6514;48.606;9.222;2023-11-21T12:25:14;9.40;99.90
12893;DHT22;6514;48.606;9.222;2023-11-21T12:27:44;9.50;99.90
12893;DHT22;6514;48.606;9.222;2023-11-21T12:30:12;9.60;99.90
12893;DHT22;6514;48.606;9.222;2023-11-21T12:32:43;9.70;99.90
12893;DHT22;6514;48.606;9.222;2023-11-21T12:35:12;9.70;99.90
12893;DHT22;6514;48.606;9.222;2023-11-21T12:37:40;9.80;99.90
12893;DHT22;6514;48.606;9.222;2023-11-21T12:40:10;9.90;99.90
12893;DHT22;6514;48.606;9.222;2023-11-21T12:42:39;10.00;99.90
12893;DHT22;6514;48.606;9.222;2023-11-21T12:45:15;10.00;99.90
12893;DHT22;6514;48.606;9.222;2023-11-21T12:47:47;10.10;99.90
12893;DHT22;6514;48.606;9.222;2023-11-21T12:50:15;10.20;99.90
12893;DHT22;6514;48.606;9.222;2023-11-21T12:52:42;10.30;99.90
12893;DHT22;6514;48.606;9.222;2023-11-21T12:55:15;10.30;99.90
12893;DHT22;6514;48.606;9.222;2023-11-21T12:57:43;10.40;99.90
12893;DHT22;6514;48.606;9.222;2023-11-21T13:00:12;10.40;99.90
12893;DHT22;6514;48.606;9.222;2023-11-21T13:02:52;10.50;99.90
12893;DHT22;6514;48.606;9.222;2023-11-21T13:05:26;10.60;99.90
12893;DHT22;6514;48.606;9.222;2023-11-21T13:07:55;10.70;99.90
12893;DHT22;6514;48.606;9.222;2023-11-21T13:10:24;10.90;99.90
12893;DHT22;6514;48.606;9.222;2023-11-21T13:12:55;11.00;99.90
12893;DHT22;6514;48.606;9.222;2023-11-21T13:15:23;11.00;99.90
12893;DHT22;6514;48.606;9.222;2023-11-21T13:17:51;11.00;99.90
12893;DHT22;6514;48.606;9.222;2023-11-21T13:20:19;11.00;99.90
12893;DHT22;6514;48.606;9.222;2023-11-21T13:22:50;11.00;99.90
12893;DHT22;6514;48.606;9.222;2023-11-21T13:25:20;11.00;99.90
12893;DHT22;6514;48.606;9.222;2023-11-21T13:27:47;11.00;99.90
12893;DHT22;6514;48.606;9.222;2023-11-21T13:30:14;10.90;99.90
12893;DHT22;6514;48.606;9.222;2023-11-21T13:32:42;10.90;99.90
12893;DHT22;6514;48.606;9.222;2023-11-21T13:35:11;10.80;99.90
12893;DHT22;6514;48.606;9.222;2023-11-21T13:37:47;10.80;99.90
12893;DHT22;6514;48.606;9.222;2023-11-21T13:40:19;10.70;99.90
12893;DHT22;6514;48.606;9.222;2023-11-21T13:42:49;10.70;99.90
12893;DHT22;6514;48.606;9.222;2023-11-21T13:45:19;10.70;99.90
12893;DHT22;6514;48.606;9.222;2023-11-21T13:47:47;10.70;99.90
12893;DHT22;6514;48.606;9.222;2023-11-21T13:50:18;10.60;99.90
12893;DHT22;6514;48.606;9.222;2023-11-21T13:52:49;10.50;99.90
12893;DHT22;6514;48.606;9.222;2023-11-21T13:55:18;10.30;99.90
12893;DHT22;6514;48.606;9.222;2023-11-21T13:57:46;10.20;99.90
12893;DHT22;6514;48.606;9.222;2023-11-21T14:00:16;10.10;99.90
12893;DHT22;6514;48.606;9.222;2023-11-21T14:02:57;10.10;99.90
12893;DHT22;6514;48.606;9.222;2023-11-21T14:05:27;10.00;99.90
12893;DHT22;6514;48.606;9.222;2023-11-21T14:07:57;9.90;99.90
12893;DHT22;6514;48.606;9.222;2023-11-21T14:10:28;9.70;99.90
12893;DHT22;6514;48.606;9.222;2023-11-21T14:13:02;9.60;99.90
12893;DHT22;6514;48.606;9.222;2023-11-21T14:15:29;9.50;99.90
12893;DHT22;6514;48.606;9.222;2023-11-21T14:17:58;9.50;99.90
12893;DHT22;6514;48.606;9.222;2023-11-21T14:20:29;9.40;99.90
12893;DHT22;6514;48.606;9.222;2023-11-21T14:22:56;9.40;99.90
12893;DHT22;6514;48.606;9.222;2023-11-21T14:25:22;9.30;99.90
12893;DHT22;6514;48.606;9.222;2023-11-21T14:27:49;9.20;99.90
12893;DHT22;6514;48.606;9.222;2023-11-21T14:30:16;9.20;99.90
12893;DHT22;6514;48.606;9.222;2023-11-21T14:32:45;9.20;99.90
12893;DHT22;6514;48.606;9.222;2023-11-21T14:35:12;9.10;99.90
12893;DHT22;6514;48.606;9.222;2023-11-21T14:37:41;9.10;99.90
12893;DHT22;6514;48.606;9.222;2023-11-21T14:40:09;9.10;99.90
12893;DHT22;6514;48.606;9.222;2023-11-21T14:42:36;9.10;99.90
12893;DHT22;6514;48.606;9.222;2023-11-21T14:45:06;9.10;99.90
12893;DHT22;6514;48.606;9.222;2023-11-21T14:47:33;9.10;99.90
12893;DHT22;6514;48.606;9.222;2023-11-21T14:50:00;9.10;99.90
12893;DHT22;6514;48.606;9.222;2023-11-21T14:52:49;9.10;99.90
12893;DHT22;6514;48.606;9.222;2023-11-21T14:55:21;9.10;99.90
12893;DHT22;6514;48.606;9.222;2023-11-21T14:57:57;9.10;99.90
12893;DHT22;6514;48.606;9.222;2023-11-21T15:00:23;9.10;99.90
12893;DHT22;6514;48.606;9.222;2023-11-21T15:03:11;9.10;99.90
12893;DHT22;6514;48.606;9.222;2023-11-21T15:05:47;9.00;99.90
12893;DHT22;6514;48.606;9.222;2023-11-21T15:08:17;9.00;99.90
12893;DHT22;6514;48.606;9.222;2023-11-21T15:10:47;8.90;99.90
12893;DHT22;6514;48.606;9.222;2023-11-21T15:13:18;8.90;99.90
12893;DHT22;6514;48.606;9.222;2023-11-21T15:15:44;8.90;99.90
12893;DHT22;6514;48.606;9.222;2023-11-21T15:18:11;8.80;99.90
12893;DHT22;6514;48.606;9.222;2023-11-21T15:20:40;8.80;99.90
12893;DHT22;6514;48.606;9.222;2023-11-21T15:23:07;8.70;99.90
12893;DHT22;6514;48.606;9.222;2023-11-21T15:25:35;8.60;99.90
12893;DHT22;6514;48.606;9.222;2023-11-21T15:28:03;8.60;99.90
12893;DHT22;6514;48.606;9.222;2023-11-21T15:30:30;8.60;99.90
12893;DHT22;6514;48.606;9.222;2023-11-21T15:32:57;8.50;99.90
12893;DHT22;6514;48.606;9.222;2023-11-21T15:35:24;8.40;99.90
12893;DHT22;6514;48.606;9.222;2023-11-21T15:37:53;8.40;99.90
12893;DHT22;6514;48.606;9.222;2023-11-21T15:40:22;8.40;99.90
12893;DHT22;6514;48.606;9.222;2023-11-21T15:42:50;8.40;99.90
12893;DHT22;6514;48.606;9.222;2023-11-21T15:45:17;8.30;99.90
12893;DHT22;6514;48.606;9.222;2023-11-21T15:47:47;8.30;99.90
12893;DHT22;6514;48.606;9.222;2023-11-21T15:50:14;8.20;99.90
12893;DHT22;6514;48.606;9.222;2023-11-21T15:52:41;8.30;99.90
12893;DHT22;6514;48.606;9.222;2023-11-21T15:55:09;8.30;99.90
12893;DHT22;6514;48.606;9.222;2023-11-21T15:57:36;8.30;99.90
12893;DHT22;6514;48.606;9.222;2023-11-21T16:00:06;8.30;99.90
12893;DHT22;6514;48.606;9.222;2023-11-21T16:02:37;8.30;99.90
12893;DHT22;6514;48.606;9.222;2023-11-21T16:05:05;8.20;99.90
12893;DHT22;6514;48.606;9.222;2023-11-21T16:07:32;8.20;99.90